Time;durP1;ratioP1;P1;durP2;ratioP2;P2;SDS_P1;SDS_P2;PMS_P1;PMS_P2;Temp;Humidity;BMP_temperature;BMP_pressure;BME280_temperature;BME280_humidity;BME280_pressure;Samples;Min_cycle;Max_cycle;Signal;HPM_P1;HPM_P2
2024/01/18 00:01:40;;;;;;;10.02;5.90;;;;;;;;;;5066933;28;20097;-58
2024/01/18 00:04:06;;;;;;;10.30;6.07;;;;;;;;;;5065689;28;20043;-57
2024/01/18 00:06:32;;;;;;;9.43;5.60;;;;;;;;;;5065616;28;20494;-58
2024/01/18 00:08:58;;;;;;;9.25;5.45;;;;;;;;;;5071351;28;20064;-59
2024/01/18 00:11:25;;;;;;;8.88;5.20;;;;;;;;;;5052484;28;20055;-57
2024/01/18 00:13:51;;;;;;;9.50;5.80;;;;;;;;;;5071067;28;20052;-58
2024/01/18 00:16:17;;;;;;;13.85;8.93;;;;;;;;;;5070986;28;20032;-57
2024/01/18 00:18:43;;;;;;;9.00;5.22;;;;;;;;;;5070855;28;20023;-56
2024/01/18 00:21:09;;;;;;;8.52;5.03;;;;;;;;;;5070298;28;20486;-54
2024/01/18 00:23:35;;;;;;;12.15;6.57;;;;;;;;;;5071023;28;20025;-57
2024/01/18 00:26:02;;;;;;;9.05;5.40;;;;;;;;;;5070621;28;20487;-56
2024/01/18 00:28:28;;;;;;;8.55;5.05;;;;;;;;;;5070795;28;20013;-57
2024/01/18 00:30:54;;;;;;;9.18;5.80;;;;;;;;;;5070382;28;20031;-60
2024/01/18 00:33:20;;;;;;;8.50;5.10;;;;;;;;;;5062193;28;20451;-58
2024/01/18 00:35:46;;;;;;;7.80;4.63;;;;;;;;;;5052957;28;20032;-58
2024/01/18 00:38:12;;;;;;;7.90;4.70;;;;;;;;;;5070835;28;20051;-59
2024/01/18 00:40:38;;;;;;;7.93;4.70;;;;;;;;;;5070509;28;20478;-57
2024/01/18 00:43:05;;;;;;;14.25;7.90;;;;;;;;;;5070323;28;20024;-57
2024/01/18 00:45:31;;;;;;;8.25;4.90;;;;;;;;;;5070773;28;20540;-57
2024/01/18 00:47:57;;;;;;;8.40;5.00;;;;;;;;;;5052481;28;20037;-58
2024/01/18 00:50:23;;;;;;;15.73;7.18;;;;;;;;;;5070597;28;20032;-55
2024/01/18 00:52:49;;;;;;;10.05;6.32;;;;;;;;;;5069526;28;20086;-56
2024/01/18 00:55:15;;;;;;;8.65;5.10;;;;;;;;;;5070518;28;20029;-59
2024/01/18 00:57:42;;;;;;;8.98;5.30;;;;;;;;;;5071390;28;20028;-59
2024/01/18 01:00:08;;;;;;;8.10;4.80;;;;;;;;;;5070842;28;20478;-58
2024/01/18 01:02:34;;;;;;;8.50;5.10;;;;;;;;;;5070055;28;20033;-56
2024/01/18 01:05:00;;;;;;;8.48;5.03;;;;;;;;;;5052710;28;20131;-58
2024/01/18 01:07:26;;;;;;;9.40;6.28;;;;;;;;;;5070385;28;20016;-56
2024/01/18 01:09:52;;;;;;;8.95;5.28;;;;;;;;;;5070404;28;20093;-59
2024/01/18 01:12:18;;;;;;;8.95;5.30;;;;;;;;;;5069955;28;20032;-57
2024/01/18 01:14:44;;;;;;;8.52;5.07;;;;;;;;;;5070492;28;20036;-58
2024/01/18 01:17:10;;;;;;;9.02;5.30;;;;;;;;;;5070507;28;20088;-58
2024/01/18 01:19:36;;;;;;;8.90;5.30;;;;;;;;;;5070378;28;20032;-59
2024/01/18 01:22:02;;;;;;;8.77;5.20;;;;;;;;;;5070223;28;20111;-57
2024/01/18 01:24:28;;;;;;;8.88;5.25;;;;;;;;;;5070885;28;20100;-56
2024/01/18 01:26:54;;;;;;;9.30;5.80;;;;;;;;;;5070731;28;20450;-55
2024/01/18 01:29:20;;;;;;;9.95;6.28;;;;;;;;;;5070706;28;20021;-57
2024/01/18 01:31:48;;;;;;;12.07;10.88;;;;;;;;;;5070253;28;20112;-56
2024/01/18 01:34:14;;;;;;;9.67;5.67;;;;;;;;;;5070575;28;20488;-56
2024/01/18 01:36:40;;;;;;;9.10;5.40;;;;;;;;;;5064209;28;20271;-57
2024/01/18 01:39:06;;;;;;;9.05;5.35;;;;;;;;;;5070257;28;20394;-55
2024/01/18 01:41:32;;;;;;;9.20;5.45;;;;;;;;;;5069709;28;20069;-54
2024/01/18 01:43:59;;;;;;;9.68;5.68;;;;;;;;;;5070155;28;20039;-57
2024/01/18 01:46:25;;;;;;;9.30;5.50;;;;;;;;;;5069745;28;20039;-58
2024/01/18 01:48:52;;;;;;;9.20;5.43;;;;;;;;;;5068813;28;20440;-56
2024/01/18 01:51:18;;;;;;;10.23;6.22;;;;;;;;;;5063748;28;20051;-58
2024/01/18 01:53:44;;;;;;;9.00;5.30;;;;;;;;;;5066433;28;20493;-58
2024/01/18 01:56:10;;;;;;;9.35;5.50;;;;;;;;;;5049754;28;20511;-55
2024/01/18 01:58:36;;;;;;;10.82;6.25;;;;;;;;;;5050125;28;20021;-58
2024/01/18 02:01:02;;;;;;;9.10;5.40;;;;;;;;;;5049304;28;20037;-58
2024/01/18 02:03:29;;;;;;;9.40;5.55;;;;;;;;;;5049897;28;20506;-57
2024/01/18 02:05:55;;;;;;;9.23;5.45;;;;;;;;;;5049856;28;20079;-58
2024/01/18 02:08:22;;;;;;;9.40;5.50;;;;;;;;;;5049798;28;20017;-56
2024/01/18 02:10:48;;;;;;;9.50;5.60;;;;;;;;;;5049728;28;20463;-58
2024/01/18 02:13:15;;;;;;;9.45;5.60;;;;;;;;;;5049314;28;20044;-55
2024/01/18 02:15:44;;;;;;;10.38;6.10;;;;;;;;;;5049640;28;20068;-59
2024/01/18 02:18:10;;;;;;;9.90;5.80;;;;;;;;;;5049779;28;20387;-58
2024/01/18 02:20:36;;;;;;;12.25;6.90;;;;;;;;;;5049453;28;20025;-58
2024/01/18 02:23:03;;;;;;;9.60;5.70;;;;;;;;;;5049217;28;20037;-57
2024/01/18 02:25:29;;;;;;;10.00;5.90;;;;;;;;;;5049564;28;20067;-58
2024/01/18 02:27:56;;;;;;;9.90;5.80;;;;;;;;;;5049498;28;20455;-58
2024/01/18 02:30:22;;;;;;;10.10;5.90;;;;;;;;;;5048798;28;20425;-58
2024/01/18 02:32:48;;;;;;;9.75;5.70;;;;;;;;;;5048835;28;20033;-56
2024/01/18 02:35:14;;;;;;;10.10;6.00;;;;;;;;;;5049926;28;20033;-59
2024/01/18 02:37:40;;;;;;;9.95;5.88;;;;;;;;;;5048900;28;20017;-57
2024/01/18 02:40:07;;;;;;;11.60;6.72;;;;;;;;;;5069177;28;20048;-55
2024/01/18 02:42:33;;;;;;;11.07;6.97;;;;;;;;;;5068431;28;20040;-58
2024/01/18 02:45:02;;;;;;;10.60;6.85;;;;;;;;;;5069034;28;20493;-57
2024/01/18 02:47:28;;;;;;;11.38;7.20;;;;;;;;;;5068974;28;20094;-56
2024/01/18 02:49:56;;;;;;;11.82;6.40;;;;;;;;;;5069048;28;20097;-57
2024/01/18 02:52:22;;;;;;;12.32;7.90;;;;;;;;;;5068416;28;20036;-57
2024/01/18 02:54:48;;;;;;;9.77;5.80;;;;;;;;;;5068816;28;20513;-59
2024/01/18 02:57:14;;;;;;;10.20;6.45;;;;;;;;;;5050778;28;20028;-56
2024/01/18 02:59:40;;;;;;;9.50;5.57;;;;;;;;;;5068780;28;20024;-57
2024/01/18 03:02:06;;;;;;;9.55;5.60;;;;;;;;;;5067840;28;20108;-58
2024/01/18 03:04:32;;;;;;;9.30;5.50;;;;;;;;;;5068597;28;20020;-57
2024/01/18 03:06:58;;;;;;;9.57;5.63;;;;;;;;;;5068716;28;20517;-58
2024/01/18 03:09:24;;;;;;;9.40;5.55;;;;;;;;;;5068409;28;20051;-55
2024/01/18 03:11:50;;;;;;;13.60;6.97;;;;;;;;;;5067855;28;20052;-59
2024/01/18 03:14:16;;;;;;;9.50;5.60;;;;;;;;;;5068695;28;20017;-58
2024/01/18 03:16:42;;;;;;;10.85;8.20;;;;;;;;;;5068289;28;20058;-56
2024/01/18 03:19:12;;;;;;;9.50;5.60;;;;;;;;;;5068091;28;20024;-58
2024/01/18 03:21:38;;;;;;;9.30;5.50;;;;;;;;;;5067496;28;20024;-56
2024/01/18 03:24:04;;;;;;;9.43;5.55;;;;;;;;;;5049006;28;20036;-53
2024/01/18 03:26:30;;;;;;;9.60;5.60;;;;;;;;;;5048622;28;20070;-57
2024/01/18 03:28:56;;;;;;;9.65;5.72;;;;;;;;;;5048793;28;20025;-57
2024/01/18 03:31:22;;;;;;;9.68;5.70;;;;;;;;;;5030083;28;20039;-57
2024/01/18 03:33:48;;;;;;;9.60;5.60;;;;;;;;;;5048575;28;20494;-56
2024/01/18 03:36:14;;;;;;;9.43;5.57;;;;;;;;;;5030494;28;20025;-56
2024/01/18 03:38:40;;;;;;;9.98;5.90;;;;;;;;;;5048463;28;20037;-58
2024/01/18 03:41:06;;;;;;;8.93;5.30;;;;;;;;;;5030691;28;20116;-54
2024/01/18 03:43:32;;;;;;;9.40;5.50;;;;;;;;;;5052226;28;20237;-57
2024/01/18 03:45:58;;;;;;;10.95;7.68;;;;;;;;;;5052305;28;20040;-57
2024/01/18 03:48:24;;;;;;;9.10;5.40;;;;;;;;;;5052648;28;20025;-59
2024/01/18 03:50:50;;;;;;;13.10;6.63;;;;;;;;;;5052419;28;20438;-55
2024/01/18 03:53:16;;;;;;;9.55;5.60;;;;;;;;;;5052165;28;20032;-58
2024/01/18 03:55:42;;;;;;;12.18;10.35;;;;;;;;;;5052620;28;20036;-56
2024/01/18 03:58:08;;;;;;;9.50;5.60;;;;;;;;;;5052576;28;20106;-56
2024/01/18 04:00:34;;;;;;;9.38;5.70;;;;;;;;;;5052230;28;20395;-56
2024/01/18 04:03:00;;;;;;;11.93;7.43;;;;;;;;;;5051608;28;20116;-58
2024/01/18 04:05:26;;;;;;;10.20;6.43;;;;;;;;;;5052412;28;20053;-57
2024/01/18 04:07:52;;;;;;;13.20;9.73;;;;;;;;;;5052159;28;20086;-57
2024/01/18 04:10:18;;;;;;;11.88;7.97;;;;;;;;;;5052104;28;20021;-58
2024/01/18 04:12:44;;;;;;;9.25;5.47;;;;;;;;;;5033590;28;20029;-59
2024/01/18 04:15:10;;;;;;;8.88;5.30;;;;;;;;;;5052143;28;20036;-57
2024/01/18 04:17:37;;;;;;;9.40;5.60;;;;;;;;;;5052132;28;20025;-57
2024/01/18 04:20:05;;;;;;;9.25;5.47;;;;;;;;;;5034224;28;20154;-58
2024/01/18 04:22:31;;;;;;;10.00;5.90;;;;;;;;;;5051034;28;20029;-56
2024/01/18 04:24:57;;;;;;;9.40;5.50;;;;;;;;;;5051922;28;20048;-56
2024/01/18 04:27:23;;;;;;;9.50;5.60;;;;;;;;;;5051590;28;20122;-58
2024/01/18 04:29:49;;;;;;;11.65;8.10;;;;;;;;;;5051933;28;20029;-58
2024/01/18 04:32:15;;;;;;;9.73;6.57;;;;;;;;;;5050992;28;20032;-58
2024/01/18 04:34:42;;;;;;;11.25;6.75;;;;;;;;;;5051271;28;20044;-53
2024/01/18 04:37:09;;;;;;;10.18;6.07;;;;;;;;;;5051301;28;20031;-57
2024/01/18 04:39:35;;;;;;;11.50;9.35;;;;;;;;;;5051400;28;20386;-57
2024/01/18 04:42:01;;;;;;;9.82;5.90;;;;;;;;;;5050824;28;20087;-56
2024/01/18 04:44:27;;;;;;;9.32;5.45;;;;;;;;;;5051344;28;20053;-56
2024/01/18 04:46:53;;;;;;;11.65;7.65;;;;;;;;;;5051128;28;20029;-57
2024/01/18 04:49:19;;;;;;;10.00;6.32;;;;;;;;;;5033314;28;20032;-57
2024/01/18 04:51:45;;;;;;;10.55;6.30;;;;;;;;;;5032684;28;20521;-54
2024/01/18 04:54:10;;;;;;;10.00;5.95;;;;;;;;;;5040522;28;20135;-57
2024/01/18 04:56:37;;;;;;;9.90;6.18;;;;;;;;;;5071219;28;20448;-58
2024/01/18 04:59:04;;;;;;;10.00;6.32;;;;;;;;;;5071314;28;20034;-58
2024/01/18 05:01:30;;;;;;;9.80;5.80;;;;;;;;;;5070481;28;20390;-57
2024/01/18 05:03:56;;;;;;;10.55;6.43;;;;;;;;;;5071227;28;20021;-56
2024/01/18 05:06:22;;;;;;;9.93;5.90;;;;;;;;;;5071008;28;20077;-58
2024/01/18 05:08:48;;;;;;;10.68;6.38;;;;;;;;;;5053282;28;20114;-56
2024/01/18 05:11:14;;;;;;;10.63;6.18;;;;;;;;;;5070286;28;20075;-56
2024/01/18 05:13:40;;;;;;;11.02;7.47;;;;;;;;;;5053119;28;20025;-56
2024/01/18 05:16:07;;;;;;;13.68;8.82;;;;;;;;;;5070725;28;20587;-57
2024/01/18 05:18:33;;;;;;;12.20;6.80;;;;;;;;;;5070654;28;20494;-58
2024/01/18 05:20:58;;;;;;;9.90;5.80;;;;;;;;;;5052473;28;20119;-57
2024/01/18 05:23:24;;;;;;;15.60;10.93;;;;;;;;;;5052147;28;20387;-57
2024/01/18 05:25:50;;;;;;;14.63;13.10;;;;;;;;;;5070487;28;20057;-55
2024/01/18 05:28:16;;;;;;;9.70;5.70;;;;;;;;;;5070644;28;20028;-58
2024/01/18 05:30:42;;;;;;;9.93;5.88;;;;;;;;;;5070164;28;20455;-57
2024/01/18 05:33:08;;;;;;;10.55;6.20;;;;;;;;;;5069910;28;20036;-54
2024/01/18 05:35:34;;;;;;;10.75;6.60;;;;;;;;;;5070286;28;20072;-57
2024/01/18 05:38:00;;;;;;;10.32;6.10;;;;;;;;;;5070174;28;20031;-57
2024/01/18 05:40:26;;;;;;;11.43;7.30;;;;;;;;;;5069984;28;20428;-59
2024/01/18 05:42:52;;;;;;;13.45;8.27;;;;;;;;;;5069394;28;20032;-56
2024/01/18 05:45:18;;;;;;;15.00;9.23;;;;;;;;;;5052066;28;20086;-57
2024/01/18 05:47:44;;;;;;;12.10;7.20;;;;;;;;;;5069658;28;20032;-57
2024/01/18 05:50:11;;;;;;;11.73;7.28;;;;;;;;;;5069971;28;20028;-56
2024/01/18 05:52:37;;;;;;;12.35;7.10;;;;;;;;;;5069179;28;20020;-57
2024/01/18 05:55:04;;;;;;;15.40;10.18;;;;;;;;;;5069650;28;20024;-54
2024/01/18 05:57:30;;;;;;;13.32;8.68;;;;;;;;;;5069485;28;20481;-57
2024/01/18 05:59:56;;;;;;;12.18;6.78;;;;;;;;;;5069596;28;20028;-54
2024/01/18 06:02:22;;;;;;;14.25;9.60;;;;;;;;;;5050852;28;20032;-56
2024/01/18 06:04:48;;;;;;;11.15;6.50;;;;;;;;;;5067245;28;20023;-59
2024/01/18 06:07:14;;;;;;;13.15;9.18;;;;;;;;;;5047260;28;20498;-58
2024/01/18 06:09:40;;;;;;;13.05;8.55;;;;;;;;;;5068793;28;20028;-60
2024/01/18 06:12:06;;;;;;;12.60;7.43;;;;;;;;;;5068325;28;20025;-57
2024/01/18 06:14:32;;;;;;;11.00;6.88;;;;;;;;;;5068864;28;20044;-60
2024/01/18 06:16:58;;;;;;;10.30;6.03;;;;;;;;;;5050784;28;20483;-58
2024/01/18 06:19:24;;;;;;;10.77;6.30;;;;;;;;;;5068861;28;20025;-56
2024/01/18 06:21:50;;;;;;;12.25;7.20;;;;;;;;;;5068207;28;20718;-56
2024/01/18 06:24:16;;;;;;;10.20;6.03;;;;;;;;;;5069065;28;20013;-56
2024/01/18 06:26:42;;;;;;;10.75;6.30;;;;;;;;;;5068633;28;20070;-57
2024/01/18 06:29:09;;;;;;;10.88;6.30;;;;;;;;;;5050466;28;20429;-54
2024/01/18 06:31:35;;;;;;;10.25;6.00;;;;;;;;;;5050247;28;20054;-57
2024/01/18 06:34:01;;;;;;;10.88;6.40;;;;;;;;;;5068965;28;20021;-57
2024/01/18 06:36:27;;;;;;;10.65;6.20;;;;;;;;;;5068494;28;20100;-59
2024/01/18 06:38:53;;;;;;;10.45;6.18;;;;;;;;;;5068322;28;20063;-59
2024/01/18 06:41:19;;;;;;;10.55;6.20;;;;;;;;;;5067601;28;20056;-60
2024/01/18 06:43:46;;;;;;;10.30;6.10;;;;;;;;;;5050490;28;20074;-56
2024/01/18 06:46:18;;;;;;;9.98;5.88;;;;;;;;;;5067828;28;20241;-58
2024/01/18 06:48:52;;;;;;;10.63;6.22;;;;;;;;;;5050213;28;20445;-57
2024/01/18 06:51:18;;;;;;;10.88;6.38;;;;;;;;;;5067205;28;20033;-57
2024/01/18 06:53:44;;;;;;;11.52;6.68;;;;;;;;;;5068048;28;20097;-57
2024/01/18 06:56:12;;;;;;;13.32;7.75;;;;;;;;;;5067875;28;20021;-56
2024/01/18 06:58:38;;;;;;;10.55;6.18;;;;;;;;;;5068449;28;20093;-55
2024/01/18 07:01:04;;;;;;;10.30;6.10;;;;;;;;;;5067097;28;20452;-57
2024/01/18 07:03:30;;;;;;;10.63;6.40;;;;;;;;;;5067964;28;20059;-56
2024/01/18 07:05:57;;;;;;;10.57;6.20;;;;;;;;;;5059162;28;20048;-58
2024/01/18 07:08:26;;;;;;;10.90;6.65;;;;;;;;;;5062381;28;20050;-59
2024/01/18 07:10:52;;;;;;;10.82;6.35;;;;;;;;;;5068157;28;20029;-57
2024/01/18 07:13:18;;;;;;;10.65;6.25;;;;;;;;;;5067659;28;20028;-58
2024/01/18 07:15:44;;;;;;;10.95;6.40;;;;;;;;;;5067574;28;20069;-59
2024/01/18 07:18:10;;;;;;;10.10;5.97;;;;;;;;;;5066290;28;20074;-56
2024/01/18 07:20:36;;;;;;;12.27;8.63;;;;;;;;;;5059620;28;20063;-57
2024/01/18 07:23:02;;;;;;;10.18;6.00;;;;;;;;;;5057870;28;20083;-57
2024/01/18 07:25:28;;;;;;;10.60;6.30;;;;;;;;;;5067984;28;20116;-59
2024/01/18 07:27:54;;;;;;;9.75;5.75;;;;;;;;;;5052539;28;20410;-58
2024/01/18 07:30:20;;;;;;;10.38;6.10;;;;;;;;;;5048211;28;20117;-56
2024/01/18 07:32:46;;;;;;;9.98;5.90;;;;;;;;;;5047509;28;20071;-57
2024/01/18 07:35:13;;;;;;;9.70;5.70;;;;;;;;;;5052891;28;20024;-57
2024/01/18 07:37:39;;;;;;;9.90;5.80;;;;;;;;;;5065229;28;20012;-59
2024/01/18 07:40:06;;;;;;;9.30;5.53;;;;;;;;;;5067898;28;20086;-60
2024/01/18 07:42:32;;;;;;;10.20;6.38;;;;;;;;;;5067148;28;20171;-58
2024/01/18 07:44:58;;;;;;;9.10;5.40;;;;;;;;;;5068288;28;20044;-58
2024/01/18 07:47:25;;;;;;;9.68;5.70;;;;;;;;;;5067525;28;20048;-58
2024/01/18 07:49:51;;;;;;;9.80;5.75;;;;;;;;;;5066428;28;20017;-57
2024/01/18 07:52:20;;;;;;;9.18;5.40;;;;;;;;;;5048741;28;20024;-60
2024/01/18 07:54:49;;;;;;;9.32;5.50;;;;;;;;;;5067391;28;20351;-58
2024/01/18 07:57:16;;;;;;;9.18;5.43;;;;;;;;;;5067483;28;20021;-59
2024/01/18 07:59:42;;;;;;;9.90;5.80;;;;;;;;;;5067601;28;20040;-57
2024/01/18 08:02:09;;;;;;;8.90;5.30;;;;;;;;;;5048824;28;20028;-57
2024/01/18 08:04:35;;;;;;;10.02;6.05;;;;;;;;;;5067914;28;20470;-58
2024/01/18 08:07:01;;;;;;;9.75;5.75;;;;;;;;;;5067748;28;20051;-57
2024/01/18 08:09:27;;;;;;;11.05;7.75;;;;;;;;;;5067606;28;20463;-56
2024/01/18 08:11:53;;;;;;;9.88;5.80;;;;;;;;;;5066784;28;20025;-58
2024/01/18 08:14:20;;;;;;;10.98;7.05;;;;;;;;;;5067246;28;20476;-58
2024/01/18 08:16:46;;;;;;;9.90;5.80;;;;;;;;;;5050542;28;20086;-59
2024/01/18 08:19:12;;;;;;;10.10;5.90;;;;;;;;;;5033839;28;20080;-59
2024/01/18 08:21:45;;;;;;;10.60;6.25;;;;;;;;;;5066837;28;20370;-58
2024/01/18 08:24:11;;;;;;;10.18;5.95;;;;;;;;;;5067589;28;20025;-57
2024/01/18 08:26:37;;;;;;;10.55;6.20;;;;;;;;;;5067833;28;20486;-57
2024/01/18 08:29:03;;;;;;;10.82;6.30;;;;;;;;;;5071446;28;20021;-57
2024/01/18 08:31:29;;;;;;;10.48;6.18;;;;;;;;;;5052682;28;20028;-59
2024/01/18 08:33:55;;;;;;;9.88;5.85;;;;;;;;;;5071270;28;20082;-56
2024/01/18 08:36:21;;;;;;;9.45;5.60;;;;;;;;;;5070903;28;20036;-57
2024/01/18 08:38:47;;;;;;;11.00;7.32;;;;;;;;;;5071221;28;20028;-59
2024/01/18 08:41:13;;;;;;;10.63;6.30;;;;;;;;;;5070588;28;20032;-53
2024/01/18 08:43:39;;;;;;;9.35;5.55;;;;;;;;;;5070851;28;20368;-50
2024/01/18 08:46:07;;;;;;;10.15;5.75;;;;;;;;;;5070877;28;20020;-53
2024/01/18 08:48:35;;;;;;;10.30;6.05;;;;;;;;;;5071122;28;20431;-51
2024/01/18 08:51:02;;;;;;;10.65;6.45;;;;;;;;;;5070748;28;20032;-53
2024/01/18 08:53:28;;;;;;;9.60;5.70;;;;;;;;;;5070920;28;20035;-53
2024/01/18 08:55:54;;;;;;;10.38;6.07;;;;;;;;;;5071216;28;20028;-49
2024/01/18 08:58:20;;;;;;;10.50;6.10;;;;;;;;;;5053115;28;20482;-49
2024/01/18 09:00:46;;;;;;;10.20;6.00;;;;;;;;;;5070562;28;20047;-52
2024/01/18 09:03:13;;;;;;;11.07;6.50;;;;;;;;;;5069992;28;20122;-51
2024/01/18 09:05:39;;;;;;;11.02;6.50;;;;;;;;;;5070661;28;20016;-51
2024/01/18 09:08:05;;;;;;;18.63;12.65;;;;;;;;;;5070692;28;20706;-50
2024/01/18 09:10:31;;;;;;;9.80;5.80;;;;;;;;;;5070643;28;20506;-49
2024/01/18 09:12:57;;;;;;;10.50;6.20;;;;;;;;;;5070380;28;20020;-46
2024/01/18 09:15:24;;;;;;;12.07;7.32;;;;;;;;;;5070557;28;20024;-54
2024/01/18 09:17:51;;;;;;;10.02;5.88;;;;;;;;;;5070574;28;20036;-54
2024/01/18 09:20:17;;;;;;;9.75;5.70;;;;;;;;;;5070479;28;20028;-53
2024/01/18 09:22:43;;;;;;;13.68;6.95;;;;;;;;;;5069489;28;20046;-57
2024/01/18 09:25:09;;;;;;;10.30;6.53;;;;;;;;;;5070442;28;20036;-55
2024/01/18 09:27:35;;;;;;;9.45;5.60;;;;;;;;;;5070250;28;20028;-53
2024/01/18 09:30:02;;;;;;;9.18;5.43;;;;;;;;;;5052510;28;20020;-53
2024/01/18 09:32:28;;;;;;;9.27;5.50;;;;;;;;;;5070098;28;20073;-52
2024/01/18 09:34:54;;;;;;;9.60;5.75;;;;;;;;;;5070142;28;20589;-56
2024/01/18 09:37:20;;;;;;;9.90;5.80;;;;;;;;;;5070176;28;20155;-49
2024/01/18 09:39:46;;;;;;;18.55;8.77;;;;;;;;;;5069918;28;20099;-55
2024/01/18 09:42:17;;;;;;;9.85;5.75;;;;;;;;;;5069404;28;20475;-57
2024/01/18 09:44:47;;;;;;;9.75;5.70;;;;;;;;;;5070034;28;20076;-56
2024/01/18 09:47:16;;;;;;;8.98;5.28;;;;;;;;;;5069798;28;20029;-54
2024/01/18 09:49:43;;;;;;;9.82;5.80;;;;;;;;;;5070166;28;20071;-51
2024/01/18 09:52:09;;;;;;;10.23;6.00;;;;;;;;;;5069761;28;20070;-57
2024/01/18 09:54:36;;;;;;;10.48;6.18;;;;;;;;;;5070274;28;20025;-55
2024/01/18 09:57:02;;;;;;;10.40;6.10;;;;;;;;;;5069741;28;20093;-56
2024/01/18 09:59:28;;;;;;;10.48;6.40;;;;;;;;;;5069926;28;20028;-56
2024/01/18 10:01:58;;;;;;;10.30;6.05;;;;;;;;;;5050991;28;20032;-58
2024/01/18 10:04:27;;;;;;;10.25;6.07;;;;;;;;;;5069935;28;20504;-53
2024/01/18 10:06:53;;;;;;;10.30;6.10;;;;;;;;;;5051811;28;20031;-55
2024/01/18 10:09:19;;;;;;;10.52;6.70;;;;;;;;;;5069902;28;20016;-54
2024/01/18 10:11:46;;;;;;;10.25;6.00;;;;;;;;;;5069099;28;20037;-56
2024/01/18 10:14:12;;;;;;;10.10;5.95;;;;;;;;;;5069704;28;20543;-55
2024/01/18 10:16:38;;;;;;;10.68;6.70;;;;;;;;;;5052112;28;20063;-57
2024/01/18 10:19:14;;;;;;;10.68;6.68;;;;;;;;;;5051659;28;20071;-56
2024/01/18 10:21:40;;;;;;;10.57;6.15;;;;;;;;;;5068638;28;20036;-56
2024/01/18 10:24:10;;;;;;;10.18;6.00;;;;;;;;;;5069446;28;20097;-53
2024/01/18 10:26:36;;;;;;;10.65;6.20;;;;;;;;;;5069033;28;20071;-55
2024/01/18 10:29:04;;;;;;;11.35;6.70;;;;;;;;;;5069424;28;20099;-57
2024/01/18 10:31:31;;;;;;;11.18;6.57;;;;;;;;;;5068993;28;20025;-54
2024/01/18 10:33:57;;;;;;;11.25;6.45;;;;;;;;;;5069347;28;20032;-55
2024/01/18 10:36:23;;;;;;;9.73;5.72;;;;;;;;;;5069310;28;20025;-56
2024/01/18 10:38:49;;;;;;;9.25;5.45;;;;;;;;;;5069139;28;20021;-56
2024/01/18 10:41:21;;;;;;;9.57;5.60;;;;;;;;;;5050201;28;20397;-50
2024/01/18 10:43:48;;;;;;;13.05;7.57;;;;;;;;;;5068895;28;20078;-55
2024/01/18 10:46:14;;;;;;;20.02;9.63;;;;;;;;;;5068535;28;20442;-54
2024/01/18 10:48:44;;;;;;;11.48;6.95;;;;;;;;;;5068770;28;20400;-54
2024/01/18 10:51:11;;;;;;;10.23;6.00;;;;;;;;;;5049511;28;20445;-55
2024/01/18 10:53:38;;;;;;;12.02;7.18;;;;;;;;;;5069020;28;20358;-55
2024/01/18 10:56:04;;;;;;;17.08;15.55;;;;;;;;;;5069067;28;20032;-55
2024/01/18 10:58:31;;;;;;;9.90;5.80;;;;;;;;;;5069223;28;20122;-53
2024/01/18 11:00:58;;;;;;;9.70;5.72;;;;;;;;;;5068634;28;20108;-56
2024/01/18 11:03:24;;;;;;;7.93;4.70;;;;;;;;;;5068187;28;20438;-56
2024/01/18 11:05:50;;;;;;;12.13;6.47;;;;;;;;;;5068645;28;20031;-53
2024/01/18 11:08:19;;;;;;;10.43;7.68;;;;;;;;;;5050580;28;20021;-53
2024/01/18 11:10:46;;;;;;;9.40;5.55;;;;;;;;;;5068247;28;20032;-55
2024/01/18 11:13:14;;;;;;;10.23;6.05;;;;;;;;;;5067930;28;20024;-52
2024/01/18 11:15:42;;;;;;;10.90;6.38;;;;;;;;;;5068671;28;20028;-56
2024/01/18 11:18:11;;;;;;;;;;;;;;;;;;5068892;28;20021;-52
2024/01/18 11:20:56;;;;;;;11.95;6.97;;;;;;;;;;5067926;28;19905;-55
2024/01/18 11:23:23;;;;;;;12.65;7.35;;;;;;;;;;5049848;28;20056;-55
2024/01/18 11:25:49;;;;;;;13.88;8.63;;;;;;;;;;5068092;28;20035;-56
2024/01/18 11:28:25;;;;;;;13.20;8.10;;;;;;;;;;5068404;28;20467;-54
2024/01/18 11:30:51;;;;;;;13.65;8.95;;;;;;;;;;5068062;28;20521;-55
2024/01/18 11:33:18;;;;;;;13.68;8.95;;;;;;;;;;5067831;28;20028;-56
2024/01/18 11:35:44;;;;;;;13.73;9.02;;;;;;;;;;5068248;28;20027;-53
2024/01/18 11:38:29;;;;;;;14.10;9.90;;;;;;;;;;5050288;28;20020;-57
2024/01/18 11:41:03;;;;;;;13.90;9.52;;;;;;;;;;5049752;28;20158;-56
2024/01/18 11:43:48;;;;;;;13.85;9.43;;;;;;;;;;5068152;28;20025;-54
2024/01/18 11:46:14;;;;;;;13.82;9.32;;;;;;;;;;5067681;28;20131;-56
2024/01/18 11:48:40;;;;;;;13.70;9.10;;;;;;;;;;5068173;28;20394;-53
2024/01/18 11:51:06;;;;;;;13.55;8.63;;;;;;;;;;5067446;28;20033;-52
2024/01/18 11:53:32;;;;;;;13.63;8.77;;;;;;;;;;5068332;28;20088;-57
2024/01/18 11:55:59;;;;;;;13.82;9.38;;;;;;;;;;5067968;28;20085;-52
2024/01/18 11:58:25;;;;;;;13.88;9.50;;;;;;;;;;5068027;28;20032;-55
2024/01/18 12:00:51;;;;;;;13.80;9.20;;;;;;;;;;5066831;28;20045;-56
2024/01/18 12:03:17;;;;;;;13.85;9.35;;;;;;;;;;5052668;28;20021;-57
2024/01/18 12:05:47;;;;;;;13.88;9.32;;;;;;;;;;5072032;28;20017;-57
2024/01/18 12:08:14;;;;;;;13.80;9.23;;;;;;;;;;5071683;28;20030;-53
2024/01/18 12:10:41;;;;;;;13.75;9.10;;;;;;;;;;5071597;28;20418;-53
2024/01/18 12:13:07;;;;;;;13.77;9.15;;;;;;;;;;5071432;28;20020;-58
2024/01/18 12:15:33;;;;;;;14.85;9.55;;;;;;;;;;5071495;28;20016;-55
2024/01/18 12:17:59;;;;;;;13.65;8.90;;;;;;;;;;5072137;28;20028;-55
2024/01/18 12:20:26;;;;;;;16.45;9.70;;;;;;;;;;5071884;28;20382;-55
2024/01/18 12:22:52;;;;;;;13.82;9.30;;;;;;;;;;5071063;28;20044;-58
2024/01/18 12:25:18;;;;;;;13.77;9.30;;;;;;;;;;5071489;28;20025;-56
2024/01/18 12:27:44;;;;;;;13.82;9.32;;;;;;;;;;5071698;28;20028;-57
2024/01/18 12:30:10;;;;;;;13.60;8.38;;;;;;;;;;5071663;28;20016;-57
2024/01/18 12:32:36;;;;;;;14.00;8.90;;;;;;;;;;5071008;28;20024;-56
2024/01/18 12:35:03;;;;;;;13.65;8.85;;;;;;;;;;5071563;28;20153;-57
2024/01/18 12:37:30;;;;;;;14.18;8.95;;;;;;;;;;5071522;28;20350;-55
2024/01/18 12:39:56;;;;;;;13.50;8.40;;;;;;;;;;5071456;28;20088;-56
2024/01/18 12:42:22;;;;;;;13.63;8.75;;;;;;;;;;5070834;28;20055;-55
2024/01/18 12:44:52;;;;;;;14.10;9.00;;;;;;;;;;5054070;28;20044;-55
2024/01/18 12:47:18;;;;;;;14.20;9.38;;;;;;;;;;5071254;28;20032;-55
2024/01/18 12:49:45;;;;;;;14.40;9.10;;;;;;;;;;5071026;28;20497;-55
2024/01/18 12:52:11;;;;;;;17.63;9.63;;;;;;;;;;5065455;28;20071;-52
2024/01/18 12:54:37;;;;;;;14.68;9.60;;;;;;;;;;5070692;28;20021;-55
2024/01/18 12:57:04;;;;;;;14.18;9.38;;;;;;;;;;5071586;28;20398;-55
2024/01/18 12:59:30;;;;;;;13.35;8.15;;;;;;;;;;5070964;28;20078;-57
2024/01/18 13:01:56;;;;;;;13.45;8.30;;;;;;;;;;5061047;28;20063;-52
2024/01/18 13:04:22;;;;;;;13.43;8.30;;;;;;;;;;5067020;28;20059;-57
2024/01/18 13:06:52;;;;;;;13.60;8.60;;;;;;;;;;5065217;28;20392;-57
2024/01/18 13:09:22;;;;;;;15.45;9.80;;;;;;;;;;5068991;28;20036;-55
2024/01/18 13:11:49;;;;;;;13.52;8.55;;;;;;;;;;5045792;28;20104;-56
2024/01/18 13:14:15;;;;;;;13.57;8.57;;;;;;;;;;5069581;28;20538;-57
2024/01/18 13:16:42;;;;;;;16.85;9.40;;;;;;;;;;5070657;28;20056;-56
2024/01/18 13:19:10;;;;;;;14.10;9.20;;;;;;;;;;5064527;28;20020;-55
2024/01/18 13:21:36;;;;;;;14.00;9.40;;;;;;;;;;5056120;28;20067;-56
2024/01/18 13:24:08;;;;;;;14.43;9.77;;;;;;;;;;5063463;28;20040;-56
2024/01/18 13:26:35;;;;;;;16.23;11.30;;;;;;;;;;5061273;28;20013;-55
2024/01/18 13:29:01;;;;;;;15.90;10.73;;;;;;;;;;5062882;28;20021;-54
2024/01/18 13:31:27;;;;;;;13.80;9.18;;;;;;;;;;5051460;28;20035;-56
2024/01/18 13:33:53;;;;;;;13.70;8.90;;;;;;;;;;5069453;28;20032;-55
2024/01/18 13:36:19;;;;;;;13.63;8.82;;;;;;;;;;5068793;28;20028;-56
2024/01/18 13:38:45;;;;;;;13.68;8.90;;;;;;;;;;5069350;28;20016;-52
2024/01/18 13:41:12;;;;;;;13.73;8.93;;;;;;;;;;5068126;28;20035;-58
2024/01/18 13:43:38;;;;;;;13.77;9.05;;;;;;;;;;5069745;28;20024;-55
2024/01/18 13:46:04;;;;;;;14.00;9.05;;;;;;;;;;5069666;28;20677;-57
2024/01/18 13:48:31;;;;;;;13.52;8.60;;;;;;;;;;5069749;28;20087;-56
2024/01/18 13:50:57;;;;;;;13.75;9.10;;;;;;;;;;5069421;28;20029;-57
2024/01/18 13:53:24;;;;;;;13.75;9.18;;;;;;;;;;5068805;28;20032;-55
2024/01/18 13:55:50;;;;;;;13.75;9.00;;;;;;;;;;5051319;28;20021;-55
2024/01/18 13:58:17;;;;;;;15.00;10.77;;;;;;;;;;5069705;28;20052;-56
2024/01/18 14:00:43;;;;;;;14.73;9.88;;;;;;;;;;5069467;28;20152;-59
2024/01/18 14:03:10;;;;;;;14.10;9.45;;;;;;;;;;5068975;28;20390;-57
2024/01/18 14:05:40;;;;;;;13.90;9.23;;;;;;;;;;5069467;28;20036;-55
2024/01/18 14:08:06;;;;;;;14.93;9.57;;;;;;;;;;5069184;28;20535;-57
2024/01/18 14:10:33;;;;;;;13.55;8.43;;;;;;;;;;5069342;28;20081;-56
2024/01/18 14:12:59;;;;;;;16.75;9.63;;;;;;;;;;5068603;28;20432;-56
2024/01/18 14:15:25;;;;;;;14.15;8.63;;;;;;;;;;5068844;28;20398;-58
2024/01/18 14:17:51;;;;;;;13.32;7.90;;;;;;;;;;5069001;28;20112;-56
2024/01/18 14:20:17;;;;;;;13.82;8.25;;;;;;;;;;5068749;28;20021;-58
2024/01/18 14:22:45;;;;;;;14.05;9.55;;;;;;;;;;5059739;28;20044;-53
2024/01/18 14:25:11;;;;;;;13.85;8.48;;;;;;;;;;5068131;28;20013;-58
2024/01/18 14:27:37;;;;;;;13.50;8.38;;;;;;;;;;5068191;28;20533;-57
2024/01/18 14:30:04;;;;;;;15.00;8.88;;;;;;;;;;5051341;28;20390;-58